sensor_id;sensor_type;location;lat;lon;timestamp;temperature;humidity
54680;DHT22;40578;53.178;5.846;2024-02-14T00:01:48;7.50;99.90
54680;DHT22;40578;53.178;5.846;2024-02-14T00:04:14;7.30;99.90
54680;DHT22;40578;53.178;5.846;2024-02-14T00:06:39;7.30;99.90
54680;DHT22;40578;53.178;5.846;2024-02-14T00:09:05;7.60;99.90
54680;DHT22;40578;53.178;5.846;2024-02-14T00:11:32;7.70;99.90
54680;DHT22;40578;53.178;5.846;2024-02-14T00:13:57;7.60;99.90
54680;DHT22;40578;53.178;5.846;2024-02-14T00:16:24;9.10;99.90
54680;DHT22;40578;53.178;5.846;2024-02-14T00:18:50;7.70;99.90
54680;DHT22;40578;53.178;5.846;2024-02-14T00:21:16;7.50;99.90
54680;DHT22;40578;53.178;5.846;2024-02-14T00:23:41;7.50;99.90
54680;DHT22;40578;53.178;5.846;2024-02-14T00:26:07;8.00;99.90
54680;DHT22;40578;53.178;5.846;2024-02-14T00:28:33;7.80;99.90
54680;DHT22;40578;53.178;5.846;2024-02-14T00:30:59;7.60;99.90
54680;DHT22;40578;53.178;5.846;2024-02-14T00:33:24;8.40;99.90
54680;DHT22;40578;53.178;5.846;2024-02-14T00:35:50;7.90;99.90
54680;DHT22;40578;53.178;5.846;2024-02-14T00:38:15;8.00;99.90
54680;DHT22;40578;53.178;5.846;2024-02-14T00:40:41;7.90;99.90
54680;DHT22;40578;53.178;5.846;2024-02-14T00:43:06;7.80;99.90
54680;DHT22;40578;53.178;5.846;2024-02-14T00:45:32;8.00;99.90
54680;DHT22;40578;53.178;5.846;2024-02-14T00:47:57;7.70;99.90
54680;DHT22;40578;53.178;5.846;2024-02-14T00:50:23;7.90;99.90
54680;DHT22;40578;53.178;5.846;2024-02-14T00:52:48;8.10;99.90
54680;DHT22;40578;53.178;5.846;2024-02-14T00:55:14;8.00;99.90
54680;DHT22;40578;53.178;5.846;2024-02-14T00:57:39;7.90;99.90
54680;DHT22;40578;53.178;5.846;2024-02-14T01:00:06;8.40;99.90
54680;DHT22;40578;53.178;5.846;2024-02-14T01:02:31;8.00;99.90
54680;DHT22;40578;53.178;5.846;2024-02-14T01:04:57;8.10;99.90
54680;DHT22;40578;53.178;5.846;2024-02-14T01:07:22;8.20;99.90
54680;DHT22;40578;53.178;5.846;2024-02-14T01:09:48;8.20;99.90
54680;DHT22;40578;53.178;5.846;2024-02-14T01:12:13;8.40;99.90
54680;DHT22;40578;53.178;5.846;2024-02-14T01:14:39;8.10;99.90
54680;DHT22;40578;53.178;5.846;2024-02-14T01:17:05;8.30;99.90
54680;DHT22;40578;53.178;5.846;2024-02-14T01:19:30;9.10;99.90
54680;DHT22;40578;53.178;5.846;2024-02-14T01:21:56;8.50;99.90
54680;DHT22;40578;53.178;5.846;2024-02-14T01:24:22;8.40;99.90
54680;DHT22;40578;53.178;5.846;2024-02-14T01:26:48;8.50;99.90
54680;DHT22;40578;53.178;5.846;2024-02-14T01:29:14;8.30;99.90
54680;DHT22;40578;53.178;5.846;2024-02-14T01:31:42;8.60;99.90
54680;DHT22;40578;53.178;5.846;2024-02-14T01:34:07;8.70;99.90
54680;DHT22;40578;53.178;5.846;2024-02-14T01:36:33;9.10;99.90
54680;DHT22;40578;53.178;5.846;2024-02-14T01:38:58;8.70;99.90
54680;DHT22;40578;53.178;5.846;2024-02-14T01:41:24;8.60;99.90
54680;DHT22;40578;53.178;5.846;2024-02-14T01:43:49;8.70;99.90
54680;DHT22;40578;53.178;5.846;2024-02-14T01:46:15;8.90;99.90
54680;DHT22;40578;53.178;5.846;2024-02-14T01:48:41;9.40;99.90
54680;DHT22;40578;53.178;5.846;2024-02-14T01:51:07;9.40;99.90
54680;DHT22;40578;53.178;5.846;2024-02-14T01:53:33;8.70;99.90
54680;DHT22;40578;53.178;5.846;2024-02-14T01:56:00;8.80;99.90
54680;DHT22;40578;53.178;5.846;2024-02-14T01:58:26;9.10;99.90
54680;DHT22;40578;53.178;5.846;2024-02-14T02:00:53;8.90;99.90
54680;DHT22;40578;53.178;5.846;2024-02-14T02:03:25;9.20;99.90
54680;DHT22;40578;53.178;5.846;2024-02-14T02:05:51;9.80;99.90
54680;DHT22;40578;53.178;5.846;2024-02-14T02:08:17;9.10;99.90
54680;DHT22;40578;53.178;5.846;2024-02-14T02:10:42;9.20;99.90
54680;DHT22;40578;53.178;5.846;2024-02-14T02:13:08;10.40;99.90
54680;DHT22;40578;53.178;5.846;2024-02-14T02:15:34;9.10;99.90
54680;DHT22;40578;53.178;5.846;2024-02-14T02:18:00;9.00;99.90
54680;DHT22;40578;53.178;5.846;2024-02-14T02:20:26;9.10;99.90
54680;DHT22;40578;53.178;5.846;2024-02-14T02:22:53;10.50;99.90
54680;DHT22;40578;53.178;5.846;2024-02-14T02:25:18;9.00;99.90
54680;DHT22;40578;53.178;5.846;2024-02-14T02:27:48;9.10;99.90
54680;DHT22;40578;53.178;5.846;2024-02-14T02:30:14;9.30;99.90
54680;DHT22;40578;53.178;5.846;2024-02-14T02:32:39;9.10;99.90
54680;DHT22;40578;53.178;5.846;2024-02-14T02:35:06;9.40;99.90
54680;DHT22;40578;53.178;5.846;2024-02-14T02:37:32;9.30;99.90
54680;DHT22;40578;53.178;5.846;2024-02-14T02:39:58;9.10;99.90
54680;DHT22;40578;53.178;5.846;2024-02-14T02:42:23;9.40;99.90
54680;DHT22;40578;53.178;5.846;2024-02-14T02:44:50;9.20;99.90
54680;DHT22;40578;53.178;5.846;2024-02-14T02:47:15;9.50;99.90
54680;DHT22;40578;53.178;5.846;2024-02-14T02:49:43;9.90;99.90
54680;DHT22;40578;53.178;5.846;2024-02-14T02:52:10;9.40;99.90
54680;DHT22;40578;53.178;5.846;2024-02-14T02:54:35;9.70;99.90
54680;DHT22;40578;53.178;5.846;2024-02-14T02:57:01;9.50;99.90
54680;DHT22;40578;53.178;5.846;2024-02-14T02:59:28;10.00;99.90
54680;DHT22;40578;53.178;5.846;2024-02-14T03:01:57;9.80;99.90
54680;DHT22;40578;53.178;5.846;2024-02-14T03:04:24;9.80;99.90
54680;DHT22;40578;53.178;5.846;2024-02-14T03:06:50;9.60;99.90
54680;DHT22;40578;53.178;5.846;2024-02-14T03:09:15;9.90;99.90
54680;DHT22;40578;53.178;5.846;2024-02-14T03:11:46;10.00;99.90
54680;DHT22;40578;53.178;5.846;2024-02-14T03:14:11;10.50;99.90
54680;DHT22;40578;53.178;5.846;2024-02-14T03:16:37;10.00;99.90
54680;DHT22;40578;53.178;5.846;2024-02-14T03:19:02;9.90;99.90
54680;DHT22;40578;53.178;5.846;2024-02-14T03:21:30;9.90;99.90
54680;DHT22;40578;53.178;5.846;2024-02-14T03:23:58;10.10;99.90
54680;DHT22;40578;53.178;5.846;2024-02-14T03:26:23;9.80;99.90
54680;DHT22;40578;53.178;5.846;2024-02-14T03:28:49;10.00;99.90
54680;DHT22;40578;53.178;5.846;2024-02-14T03:31:15;10.10;99.90
54680;DHT22;40578;53.178;5.846;2024-02-14T03:33:41;10.10;99.90
54680;DHT22;40578;53.178;5.846;2024-02-14T03:36:07;10.20;99.90
54680;DHT22;40578;53.178;5.846;2024-02-14T03:38:33;10.00;99.90
54680;DHT22;40578;53.178;5.846;2024-02-14T03:40:58;10.10;99.90
54680;DHT22;40578;53.178;5.846;2024-02-14T03:43:24;10.10;99.90
54680;DHT22;40578;53.178;5.846;2024-02-14T03:45:49;10.20;99.90
54680;DHT22;40578;53.178;5.846;2024-02-14T03:48:15;10.40;99.90
54680;DHT22;40578;53.178;5.846;2024-02-14T03:50:41;10.40;99.90
54680;DHT22;40578;53.178;5.846;2024-02-14T03:53:08;10.50;99.90
54680;DHT22;40578;53.178;5.846;2024-02-14T03:55:36;10.50;99.90
54680;DHT22;40578;53.178;5.846;2024-02-14T03:58:02;10.50;99.90
54680;DHT22;40578;53.178;5.846;2024-02-14T04:00:28;10.30;99.90
54680;DHT22;40578;53.178;5.846;2024-02-14T04:02:55;10.90;99.90
54680;DHT22;40578;53.178;5.846;2024-02-14T04:05:25;10.50;99.90
54680;DHT22;40578;53.178;5.846;2024-02-14T04:07:52;10.30;99.90
54680;DHT22;40578;53.178;5.846;2024-02-14T04:10:19;10.60;99.90
54680;DHT22;40578;53.178;5.846;2024-02-14T04:12:45;10.30;99.90
54680;DHT22;40578;53.178;5.846;2024-02-14T04:15:10;10.40;99.90
54680;DHT22;40578;53.178;5.846;2024-02-14T04:17:36;10.50;99.90
54680;DHT22;40578;53.178;5.846;2024-02-14T04:20:02;10.70;99.90
54680;DHT22;40578;53.178;5.846;2024-02-14T04:22:27;10.70;99.90
54680;DHT22;40578;53.178;5.846;2024-02-14T04:24:53;10.50;99.90
54680;DHT22;40578;53.178;5.846;2024-02-14T04:27:18;10.80;99.90
54680;DHT22;40578;53.178;5.846;2024-02-14T04:29:47;10.90;99.90
54680;DHT22;40578;53.178;5.846;2024-02-14T04:32:13;10.60;99.90
54680;DHT22;40578;53.178;5.846;2024-02-14T04:34:39;10.60;99.90
54680;DHT22;40578;53.178;5.846;2024-02-14T04:37:08;10.70;99.90
54680;DHT22;40578;53.178;5.846;2024-02-14T04:39:37;10.70;99.90
54680;DHT22;40578;53.178;5.846;2024-02-14T04:42:03;10.60;99.90
54680;DHT22;40578;53.178;5.846;2024-02-14T04:44:30;10.90;99.90
54680;DHT22;40578;53.178;5.846;2024-02-14T04:46:56;10.90;99.90
54680;DHT22;40578;53.178;5.846;2024-02-14T04:49:24;10.90;99.90
54680;DHT22;40578;53.178;5.846;2024-02-14T04:51:50;11.00;99.90
54680;DHT22;40578;53.178;5.846;2024-02-14T04:54:16;10.80;99.90
54680;DHT22;40578;53.178;5.846;2024-02-14T04:56:41;11.00;99.90
54680;DHT22;40578;53.178;5.846;2024-02-14T04:59:08;10.80;99.90
54680;DHT22;40578;53.178;5.846;2024-02-14T05:01:34;11.00;99.90
54680;DHT22;40578;53.178;5.846;2024-02-14T05:03:59;10.90;99.90
54680;DHT22;40578;53.178;5.846;2024-02-14T05:06:25;10.80;99.90
54680;DHT22;40578;53.178;5.846;2024-02-14T05:08:51;10.80;99.90
54680;DHT22;40578;53.178;5.846;2024-02-14T05:11:17;11.00;99.90
54680;DHT22;40578;53.178;5.846;2024-02-14T05:13:43;10.80;99.90
54680;DHT22;40578;53.178;5.846;2024-02-14T05:16:09;11.00;99.90
54680;DHT22;40578;53.178;5.846;2024-02-14T05:18:36;10.80;99.90
54680;DHT22;40578;53.178;5.846;2024-02-14T05:21:06;11.60;99.90
54680;DHT22;40578;53.178;5.846;2024-02-14T05:23:32;11.30;99.90
54680;DHT22;40578;53.178;5.846;2024-02-14T05:25:58;11.10;99.90
54680;DHT22;40578;53.178;5.846;2024-02-14T05:28:23;10.90;99.90
54680;DHT22;40578;53.178;5.846;2024-02-14T05:30:49;11.00;99.90
54680;DHT22;40578;53.178;5.846;2024-02-14T05:33:14;11.20;99.90
54680;DHT22;40578;53.178;5.846;2024-02-14T05:35:40;11.00;99.90
54680;DHT22;40578;53.178;5.846;2024-02-14T05:38:05;11.10;99.90
54680;DHT22;40578;53.178;5.846;2024-02-14T05:40:33;11.00;99.90
54680;DHT22;40578;53.178;5.846;2024-02-14T05:42:58;11.50;99.90
54680;DHT22;40578;53.178;5.846;2024-02-14T05:45:24;10.90;99.90
54680;DHT22;40578;53.178;5.846;2024-02-14T05:47:49;11.10;99.90
54680;DHT22;40578;53.178;5.846;2024-02-14T05:50:15;11.10;99.90
54680;DHT22;40578;53.178;5.846;2024-02-14T05:52:40;11.00;99.90
54680;DHT22;40578;53.178;5.846;2024-02-14T05:55:06;11.10;99.90
54680;DHT22;40578;53.178;5.846;2024-02-14T05:57:32;11.00;99.90
54680;DHT22;40578;53.178;5.846;2024-02-14T05:59:58;11.00;99.90
54680;DHT22;40578;53.178;5.846;2024-02-14T06:02:24;11.00;99.90
54680;DHT22;40578;53.178;5.846;2024-02-14T06:04:49;11.00;99.90
54680;DHT22;40578;53.178;5.846;2024-02-14T06:07:15;11.50;99.90
54680;DHT22;40578;53.178;5.846;2024-02-14T06:09:41;11.10;99.90
54680;DHT22;40578;53.178;5.846;2024-02-14T06:12:06;11.20;99.90
54680;DHT22;40578;53.178;5.846;2024-02-14T06:14:32;11.20;99.90
54680;DHT22;40578;53.178;5.846;2024-02-14T06:16:59;11.00;99.90
54680;DHT22;40578;53.178;5.846;2024-02-14T06:19:25;11.10;99.90
54680;DHT22;40578;53.178;5.846;2024-02-14T06:21:50;11.40;99.90
54680;DHT22;40578;53.178;5.846;2024-02-14T06:24:16;11.20;99.90
54680;DHT22;40578;53.178;5.846;2024-02-14T06:26:43;11.10;99.90
54680;DHT22;40578;53.178;5.846;2024-02-14T06:29:08;11.20;99.90
54680;DHT22;40578;53.178;5.846;2024-02-14T06:31:34;11.50;99.90
54680;DHT22;40578;53.178;5.846;2024-02-14T06:33:59;11.10;99.90
54680;DHT22;40578;53.178;5.846;2024-02-14T06:36:25;11.00;99.90
54680;DHT22;40578;53.178;5.846;2024-02-14T06:38:50;10.90;99.90
54680;DHT22;40578;53.178;5.846;2024-02-14T06:41:16;11.70;99.90
54680;DHT22;40578;53.178;5.846;2024-02-14T06:43:41;11.20;99.90
54680;DHT22;40578;53.178;5.846;2024-02-14T06:46:07;11.10;99.90
54680;DHT22;40578;53.178;5.846;2024-02-14T06:48:33;11.10;99.90
54680;DHT22;40578;53.178;5.846;2024-02-14T06:50:59;11.00;99.90
54680;DHT22;40578;53.178;5.846;2024-02-14T06:53:24;10.90;99.90
54680;DHT22;40578;53.178;5.846;2024-02-14T06:55:50;10.80;99.90
54680;DHT22;40578;53.178;5.846;2024-02-14T06:58:16;11.10;99.90
54680;DHT22;40578;53.178;5.846;2024-02-14T07:00:41;11.00;99.90
54680;DHT22;40578;53.178;5.846;2024-02-14T07:03:07;11.00;99.90
54680;DHT22;40578;53.178;5.846;2024-02-14T07:05:32;10.80;99.90
54680;DHT22;40578;53.178;5.846;2024-02-14T07:07:58;11.00;99.90
54680;DHT22;40578;53.178;5.846;2024-02-14T07:10:24;10.90;99.90
54680;DHT22;40578;53.178;5.846;2024-02-14T07:12:49;11.10;99.90
54680;DHT22;40578;53.178;5.846;2024-02-14T07:15:15;10.80;99.90
54680;DHT22;40578;53.178;5.846;2024-02-14T07:17:40;11.00;99.90
54680;DHT22;40578;53.178;5.846;2024-02-14T07:20:07;11.00;99.90
54680;DHT22;40578;53.178;5.846;2024-02-14T07:22:35;10.80;99.90
54680;DHT22;40578;53.178;5.846;2024-02-14T07:25:00;11.10;99.90
54680;DHT22;40578;53.178;5.846;2024-02-14T07:27:26;11.40;99.90
54680;DHT22;40578;53.178;5.846;2024-02-14T07:29:52;11.70;99.90
54680;DHT22;40578;53.178;5.846;2024-02-14T07:32:17;11.00;99.90
54680;DHT22;40578;53.178;5.846;2024-02-14T07:34:43;10.90;99.90
54680;DHT22;40578;53.178;5.846;2024-02-14T07:37:09;11.40;99.90
54680;DHT22;40578;53.178;5.846;2024-02-14T07:39:34;11.00;99.90
54680;DHT22;40578;53.178;5.846;2024-02-14T07:42:03;11.20;99.90
54680;DHT22;40578;53.178;5.846;2024-02-14T07:44:28;11.00;99.90
54680;DHT22;40578;53.178;5.846;2024-02-14T07:46:54;11.40;99.90
54680;DHT22;40578;53.178;5.846;2024-02-14T07:49:20;11.20;99.90
54680;DHT22;40578;53.178;5.846;2024-02-14T07:51:46;11.10;99.90
54680;DHT22;40578;53.178;5.846;2024-02-14T07:54:11;11.10;99.90
54680;DHT22;40578;53.178;5.846;2024-02-14T07:56:37;11.20;99.90
54680;DHT22;40578;53.178;5.846;2024-02-14T07:59:02;11.20;99.90
54680;DHT22;40578;53.178;5.846;2024-02-14T08:01:29;11.10;99.90
54680;DHT22;40578;53.178;5.846;2024-02-14T08:03:55;11.30;99.90
54680;DHT22;40578;53.178;5.846;2024-02-14T08:06:20;10.90;99.90
54680;DHT22;40578;53.178;5.846;2024-02-14T08:08:46;11.30;99.90
54680;DHT22;40578;53.178;5.846;2024-02-14T08:11:11;11.30;99.90
54680;DHT22;40578;53.178;5.846;2024-02-14T08:13:37;11.00;99.90
54680;DHT22;40578;53.178;5.846;2024-02-14T08:16:05;11.10;99.90
54680;DHT22;40578;53.178;5.846;2024-02-14T08:18:32;11.40;99.90
54680;DHT22;40578;53.178;5.846;2024-02-14T08:20:57;11.40;99.90
54680;DHT22;40578;53.178;5.846;2024-02-14T08:23:23;11.20;99.90
54680;DHT22;40578;53.178;5.846;2024-02-14T08:25:48;11.50;99.90
54680;DHT22;40578;53.178;5.846;2024-02-14T08:28:14;11.30;99.90
54680;DHT22;40578;53.178;5.846;2024-02-14T08:30:40;11.50;99.90
54680;DHT22;40578;53.178;5.846;2024-02-14T08:33:06;11.70;99.90
54680;DHT22;40578;53.178;5.846;2024-02-14T08:35:31;11.50;99.90
54680;DHT22;40578;53.178;5.846;2024-02-14T08:37:58;11.30;99.90
54680;DHT22;40578;53.178;5.846;2024-02-14T08:40:23;11.20;99.90
54680;DHT22;40578;53.178;5.846;2024-02-14T08:42:49;11.50;99.90
54680;DHT22;40578;53.178;5.846;2024-02-14T08:45:14;11.50;99.90
54680;DHT22;40578;53.178;5.846;2024-02-14T08:47:43;11.50;99.90
54680;DHT22;40578;53.178;5.846;2024-02-14T08:50:08;11.40;99.90
54680;DHT22;40578;53.178;5.846;2024-02-14T08:52:34;11.70;99.90
54680;DHT22;40578;53.178;5.846;2024-02-14T08:54:59;11.50;99.90
54680;DHT22;40578;53.178;5.846;2024-02-14T08:57:25;11.70;99.90
54680;DHT22;40578;53.178;5.846;2024-02-14T08:59:51;11.40;99.90
54680;DHT22;40578;53.178;5.846;2024-02-14T09:02:17;11.60;99.90
54680;DHT22;40578;53.178;5.846;2024-02-14T09:04:42;11.70;99.90
54680;DHT22;40578;53.178;5.846;2024-02-14T09:07:09;12.00;99.90
54680;DHT22;40578;53.178;5.846;2024-02-14T09:09:35;11.40;99.90
54680;DHT22;40578;53.178;5.846;2024-02-14T09:12:00;11.80;99.90
54680;DHT22;40578;53.178;5.846;2024-02-14T09:14:29;11.50;99.90
54680;DHT22;40578;53.178;5.846;2024-02-14T09:16:55;11.60;99.90
54680;DHT22;40578;53.178;5.846;2024-02-14T09:19:21;11.50;99.90
54680;DHT22;40578;53.178;5.846;2024-02-14T09:21:46;11.90;99.90
54680;DHT22;40578;53.178;5.846;2024-02-14T09:24:13;11.60;99.90
54680;DHT22;40578;53.178;5.846;2024-02-14T09:26:38;12.70;99.90
54680;DHT22;40578;53.178;5.846;2024-02-14T09:29:04;11.90;99.90
54680;DHT22;40578;53.178;5.846;2024-02-14T09:31:30;11.70;99.90
54680;DHT22;40578;53.178;5.846;2024-02-14T09:33:55;11.70;99.90
54680;DHT22;40578;53.178;5.846;2024-02-14T09:36:23;11.90;99.90
54680;DHT22;40578;53.178;5.846;2024-02-14T09:38:49;13.00;99.90
54680;DHT22;40578;53.178;5.846;2024-02-14T09:41:15;11.90;99.90
54680;DHT22;40578;53.178;5.846;2024-02-14T09:43:46;11.60;99.90
54680;DHT22;40578;53.178;5.846;2024-02-14T09:46:12;11.70;99.90
54680;DHT22;40578;53.178;5.846;2024-02-14T09:48:38;11.90;99.90
54680;DHT22;40578;53.178;5.846;2024-02-14T09:51:05;11.90;99.90
54680;DHT22;40578;53.178;5.846;2024-02-14T09:53:31;12.00;99.90
54680;DHT22;40578;53.178;5.846;2024-02-14T09:55:58;12.30;99.90
54680;DHT22;40578;53.178;5.846;2024-02-14T09:58:24;11.70;99.90
54680;DHT22;40578;53.178;5.846;2024-02-14T10:00:50;12.10;99.90
54680;DHT22;40578;53.178;5.846;2024-02-14T10:03:16;12.30;99.90
54680;DHT22;40578;53.178;5.846;2024-02-14T10:05:42;12.20;99.90
54680;DHT22;40578;53.178;5.846;2024-02-14T10:08:07;12.30;99.90
54680;DHT22;40578;53.178;5.846;2024-02-14T10:10:34;12.30;99.90
54680;DHT22;40578;53.178;5.846;2024-02-14T10:13:06;12.90;99.90
54680;DHT22;40578;53.178;5.846;2024-02-14T10:15:32;12.00;99.90
54680;DHT22;40578;53.178;5.846;2024-02-14T10:17:58;12.50;99.90
54680;DHT22;40578;53.178;5.846;2024-02-14T10:20:24;12.20;99.90
54680;DHT22;40578;53.178;5.846;2024-02-14T10:22:50;12.30;99.90
54680;DHT22;40578;53.178;5.846;2024-02-14T10:25:16;12.40;99.90
54680;DHT22;40578;53.178;5.846;2024-02-14T10:27:44;12.20;99.90
54680;DHT22;40578;53.178;5.846;2024-02-14T10:30:09;12.30;99.90
54680;DHT22;40578;53.178;5.846;2024-02-14T10:32:36;12.10;99.90
54680;DHT22;40578;53.178;5.846;2024-02-14T10:35:05;12.20;99.90
54680;DHT22;40578;53.178;5.846;2024-02-14T10:37:36;12.40;99.90
54680;DHT22;40578;53.178;5.846;2024-02-14T10:40:03;12.20;99.90
54680;DHT22;40578;53.178;5.846;2024-02-14T10:42:31;12.30;99.90
54680;DHT22;40578;53.178;5.846;2024-02-14T10:44:57;12.10;99.90
54680;DHT22;40578;53.178;5.846;2024-02-14T10:47:24;12.40;99.90
54680;DHT22;40578;53.178;5.846;2024-02-14T10:49:50;12.10;99.90
54680;DHT22;40578;53.178;5.846;2024-02-14T10:52:17;12.50;99.90
54680;DHT22;40578;53.178;5.846;2024-02-14T10:54:43;12.10;99.90
54680;DHT22;40578;53.178;5.846;2024-02-14T10:57:11;12.40;99.90
54680;DHT22;40578;53.178;5.846;2024-02-14T10:59:41;12.20;99.90
54680;DHT22;40578;53.178;5.846;2024-02-14T11:02:08;12.40;99.90
54680;DHT22;40578;53.178;5.846;2024-02-14T11:04:34;12.40;99.90
54680;DHT22;40578;53.178;5.846;2024-02-14T11:06:59;12.30;99.90
54680;DHT22;40578;53.178;5.846;2024-02-14T11:09:31;12.40;99.90
54680;DHT22;40578;53.178;5.846;2024-02-14T11:12:00;12.50;99.90
54680;DHT22;40578;53.178;5.846;2024-02-14T11:14:29;12.60;99.90
54680;DHT22;40578;53.178;5.846;2024-02-14T11:16:54;12.60;99.90
54680;DHT22;40578;53.178;5.846;2024-02-14T11:19:29;12.40;99.90
54680;DHT22;40578;53.178;5.846;2024-02-14T11:21:55;12.60;99.90
54680;DHT22;40578;53.178;5.846;2024-02-14T11:24:21;12.50;99.90
54680;DHT22;40578;53.178;5.846;2024-02-14T11:26:52;12.50;99.90
54680;DHT22;40578;53.178;5.846;2024-02-14T11:29:18;12.30;99.90
54680;DHT22;40578;53.178;5.846;2024-02-14T11:31:44;12.40;99.90
54680;DHT22;40578;53.178;5.846;2024-02-14T11:34:13;12.30;99.90
54680;DHT22;40578;53.178;5.846;2024-02-14T11:36:41;12.50;99.90
54680;DHT22;40578;53.178;5.846;2024-02-14T11:39:07;12.50;99.90
54680;DHT22;40578;53.178;5.846;2024-02-14T11:41:33;12.40;99.90
54680;DHT22;40578;53.178;5.846;2024-02-14T11:44:03;12.90;99.90
54680;DHT22;40578;53.178;5.846;2024-02-14T11:46:32;12.60;99.90
54680;DHT22;40578;53.178;5.846;2024-02-14T11:48:58;12.60;99.90
54680;DHT22;40578;53.178;5.846;2024-02-14T11:51:26;12.50;99.90
54680;DHT22;40578;53.178;5.846;2024-02-14T11:53:52;12.40;99.90
54680;DHT22;40578;53.178;5.846;2024-02-14T11:56:17;12.60;99.90
54680;DHT22;40578;53.178;5.846;2024-02-14T11:58:43;12.50;99.90
54680;DHT22;40578;53.178;5.846;2024-02-14T12:01:08;12.40;99.90
54680;DHT22;40578;53.178;5.846;2024-02-14T12:03:35;12.60;99.90
54680;DHT22;40578;53.178;5.846;2024-02-14T12:06:01;12.60;99.90
54680;DHT22;40578;53.178;5.846;2024-02-14T12:08:28;12.50;99.90
54680;DHT22;40578;53.178;5.846;2024-02-14T12:10:54;12.40;99.90
54680;DHT22;40578;53.178;5.846;2024-02-14T12:13:20;12.60;99.90
54680;DHT22;40578;53.178;5.846;2024-02-14T12:15:47;12.70;99.90
54680;DHT22;40578;53.178;5.846;2024-02-14T12:18:12;12.70;99.90
54680;DHT22;40578;53.178;5.846;2024-02-14T12:20:39;13.20;99.90
54680;DHT22;40578;53.178;5.846;2024-02-14T12:23:05;12.70;99.90
54680;DHT22;40578;53.178;5.846;2024-02-14T12:25:33;12.60;99.90
54680;DHT22;40578;53.178;5.846;2024-02-14T12:27:59;12.90;99.90
54680;DHT22;40578;53.178;5.846;2024-02-14T12:33:11;12.50;99.90
54680;DHT22;40578;53.178;5.846;2024-02-14T12:35:36;12.60;99.90
54680;DHT22;40578;53.178;5.846;2024-02-14T12:38:08;12.70;99.90
54680;DHT22;40578;53.178;5.846;2024-02-14T12:40:35;12.70;99.90
54680;DHT22;40578;53.178;5.846;2024-02-14T12:43:00;12.40;99.90
54680;DHT22;40578;53.178;5.846;2024-02-14T12:45:26;13.30;99.90
54680;DHT22;40578;53.178;5.846;2024-02-14T12:47:52;12.70;99.90
54680;DHT22;40578;53.178;5.846;2024-02-14T12:50:18;12.40;99.90
54680;DHT22;40578;53.178;5.846;2024-02-14T12:52:46;12.50;99.90
54680;DHT22;40578;53.178;5.846;2024-02-14T12:55:11;13.60;99.90
54680;DHT22;40578;53.178;5.846;2024-02-14T12:57:38;12.60;99.90
54680;DHT22;40578;53.178;5.846;2024-02-14T13:00:04;13.10;99.90
54680;DHT22;40578;53.178;5.846;2024-02-14T13:02:34;12.60;99.90
54680;DHT22;40578;53.178;5.846;2024-02-14T13:04:59;12.70;99.90
54680;DHT22;40578;53.178;5.846;2024-02-14T13:07:26;12.90;99.90
54680;DHT22;40578;53.178;5.846;2024-02-14T13:09:51;12.60;99.90
54680;DHT22;40578;53.178;5.846;2024-02-14T13:12:17;12.50;99.90
54680;DHT22;40578;53.178;5.846;2024-02-14T13:14:42;13.30;99.90
54680;DHT22;40578;53.178;5.846;2024-02-14T13:17:08;12.40;99.90
54680;DHT22;40578;53.178;5.846;2024-02-14T13:19:34;12.50;99.90
54680;DHT22;40578;53.178;5.846;2024-02-14T13:22:00;12.80;99.90
54680;DHT22;40578;53.178;5.846;2024-02-14T13:24:25;12.50;99.90
54680;DHT22;40578;53.178;5.846;2024-02-14T13:26:51;12.50;99.90
54680;DHT22;40578;53.178;5.846;2024-02-14T13:29:16;12.50;99.90
54680;DHT22;40578;53.178;5.846;2024-02-14T13:31:42;12.60;99.90
54680;DHT22;40578;53.178;5.846;2024-02-14T13:34:08;13.20;99.90
54680;DHT22;40578;53.178;5.846;2024-02-14T13:36:33;12.70;99.90
54680;DHT22;40578;53.178;5.846;2024-02-14T13:38:59;12.80;99.90
54680;DHT22;40578;53.178;5.846;2024-02-14T13:41:25;12.70;99.90
54680;DHT22;40578;53.178;5.846;2024-02-14T13:43:51;12.80;99.90
54680;DHT22;40578;53.178;5.846;2024-02-14T13:46:17;12.80;99.90
54680;DHT22;40578;53.178;5.846;2024-02-14T13:48:43;12.60;99.90
54680;DHT22;40578;53.178;5.846;2024-02-14T13:51:09;12.90;99.90
54680;DHT22;40578;53.178;5.846;2024-02-14T13:53:35;12.60;99.90
54680;DHT22;40578;53.178;5.846;2024-02-14T13:56:00;12.80;99.90
54680;DHT22;40578;53.178;5.846;2024-02-14T13:58:26;12.80;99.90
54680;DHT22;40578;53.178;5.846;2024-02-14T14:00:52;12.70;99.90
54680;DHT22;40578;53.178;5.846;2024-02-14T14:03:18;11.90;99.90
54680;DHT22;40578;53.178;5.846;2024-02-14T14:05:43;13.30;99.90
54680;DHT22;40578;53.178;5.846;2024-02-14T14:08:09;13.00;99.90
54680;DHT22;40578;53.178;5.846;2024-02-14T14:10:34;12.70;99.90
54680;DHT22;40578;53.178;5.846;2024-02-14T14:13:00;13.00;99.90
54680;DHT22;40578;53.178;5.846;2024-02-14T14:15:25;12.80;99.90
54680;DHT22;40578;53.178;5.846;2024-02-14T14:17:52;12.70;99.90
54680;DHT22;40578;53.178;5.846;2024-02-14T14:20:17;12.70;99.90
54680;DHT22;40578;53.178;5.846;2024-02-14T14:22:44;12.70;99.90
54680;DHT22;40578;53.178;5.846;2024-02-14T14:25:09;12.80;99.90
54680;DHT22;40578;53.178;5.846;2024-02-14T14:27:35;12.70;99.90
54680;DHT22;40578;53.178;5.846;2024-02-14T14:30:00;13.80;99.90
54680;DHT22;40578;53.178;5.846;2024-02-14T14:32:26;12.90;99.90
54680;DHT22;40578;53.178;5.846;2024-02-14T14:34:51;12.90;99.90
54680;DHT22;40578;53.178;5.846;2024-02-14T14:37:17;12.70;99.90
54680;DHT22;40578;53.178;5.846;2024-02-14T14:39:42;13.20;99.90
54680;DHT22;40578;53.178;5.846;2024-02-14T14:42:10;12.80;99.90
54680;DHT22;40578;53.178;5.846;2024-02-14T14:44:35;12.70;99.90
54680;DHT22;40578;53.178;5.846;2024-02-14T14:47:01;12.80;99.90
54680;DHT22;40578;53.178;5.846;2024-02-14T14:49:27;12.90;99.90
54680;DHT22;40578;53.178;5.846;2024-02-14T14:51:52;13.70;99.90
54680;DHT22;40578;53.178;5.846;2024-02-14T14:54:18;13.00;99.90
54680;DHT22;40578;53.178;5.846;2024-02-14T14:56:44;13.00;99.90
54680;DHT22;40578;53.178;5.846;2024-02-14T14:59:11;12.90;99.90
54680;DHT22;40578;53.178;5.846;2024-02-14T15:01:37;13.00;99.90
54680;DHT22;40578;53.178;5.846;2024-02-14T15:04:03;13.30;99.90
54680;DHT22;40578;53.178;5.846;2024-02-14T15:06:29;12.90;99.90
54680;DHT22;40578;53.178;5.846;2024-02-14T15:08:55;13.60;99.90
54680;DHT22;40578;53.178;5.846;2024-02-14T15:11:21;12.70;99.90
54680;DHT22;40578;53.178;5.846;2024-02-14T15:13:47;12.70;99.90
54680;DHT22;40578;53.178;5.846;2024-02-14T15:16:13;12.70;99.90
54680;DHT22;40578;53.178;5.846;2024-02-14T15:18:39;12.70;99.90
54680;DHT22;40578;53.178;5.846;2024-02-14T15:21:05;12.90;99.90
54680;DHT22;40578;53.178;5.846;2024-02-14T15:23:32;12.70;99.90
54680;DHT22;40578;53.178;5.846;2024-02-14T15:25:57;12.60;99.90
54680;DHT22;40578;53.178;5.846;2024-02-14T15:28:28;12.70;99.90
54680;DHT22;40578;53.178;5.846;2024-02-14T15:30:54;12.70;99.90